sensor_id;sensor_type;location;lat;lon;timestamp;pressure;altitude;pressure_sealevel;temperature;humidity
23281;BME280;11809;56.390;-3.266;2023-05-07T00:00:05;101107.53;;;16.46;56.27
23281;BME280;11809;56.390;-3.266;2023-05-07T00:02:36;101106.66;;;16.46;56.29
23281;BME280;11809;56.390;-3.266;2023-05-07T00:05:05;101095.28;;;16.44;56.42
23281;BME280;11809;56.390;-3.266;2023-05-07T00:07:32;101093.56;;;16.43;56.38
23281;BME280;11809;56.390;-3.266;2023-05-07T00:09:59;101087.34;;;16.44;56.41
23281;BME280;11809;56.390;-3.266;2023-05-07T00:12:26;101075.97;;;16.42;56.44
23281;BME280;11809;56.390;-3.266;2023-05-07T00:14:53;101076.91;;;16.41;56.44
23281;BME280;11809;56.390;-3.266;2023-05-07T00:17:20;101078.69;;;16.40;56.26
23281;BME280;11809;56.390;-3.266;2023-05-07T00:19:47;101081.44;;;16.38;56.38
23281;BME280;11809;56.390;-3.266;2023-05-07T00:22:14;101081.50;;;16.37;56.28
23281;BME280;11809;56.390;-3.266;2023-05-07T00:24:42;101087.84;;;16.34;56.44
23281;BME280;11809;56.390;-3.266;2023-05-07T00:27:09;101090.50;;;16.34;56.46
23281;BME280;11809;56.390;-3.266;2023-05-07T00:29:36;101094.88;;;16.35;56.39
23281;BME280;11809;56.390;-3.266;2023-05-07T00:32:03;101101.09;;;16.34;56.46
23281;BME280;11809;56.390;-3.266;2023-05-07T00:34:30;101110.03;;;16.33;56.46
23281;BME280;11809;56.390;-3.266;2023-05-07T00:36:58;101105.66;;;16.32;56.47
23281;BME280;11809;56.390;-3.266;2023-05-07T00:39:25;101121.72;;;16.29;56.63
23281;BME280;11809;56.390;-3.266;2023-05-07T00:41:52;101120.88;;;16.29;56.52
23281;BME280;11809;56.390;-3.266;2023-05-07T00:44:19;101129.78;;;16.28;56.57
23281;BME280;11809;56.390;-3.266;2023-05-07T00:46:46;101128.06;;;16.27;56.29
23281;BME280;11809;56.390;-3.266;2023-05-07T00:49:16;101133.31;;;16.28;56.71
23281;BME280;11809;56.390;-3.266;2023-05-07T00:51:45;101131.59;;;16.27;56.72
23281;BME280;11809;56.390;-3.266;2023-05-07T00:54:13;101130.81;;;16.25;56.64
23281;BME280;11809;56.390;-3.266;2023-05-07T00:56:40;101128.16;;;16.25;56.68
23281;BME280;11809;56.390;-3.266;2023-05-07T00:59:08;101129.03;;;16.26;56.77
23281;BME280;11809;56.390;-3.266;2023-05-07T01:01:35;101125.50;;;16.25;56.72
23281;BME280;11809;56.390;-3.266;2023-05-07T01:04:03;101112.44;;;16.22;56.73
23281;BME280;11809;56.390;-3.266;2023-05-07T01:06:32;101113.19;;;16.24;56.68
23281;BME280;11809;56.390;-3.266;2023-05-07T01:09:00;101111.47;;;16.23;56.75
23281;BME280;11809;56.390;-3.266;2023-05-07T01:11:28;101097.44;;;16.21;56.80
23281;BME280;11809;56.390;-3.266;2023-05-07T01:13:55;101091.22;;;16.22;56.81
23281;BME280;11809;56.390;-3.266;2023-05-07T01:16:23;101088.56;;;16.22;56.95
23281;BME280;11809;56.390;-3.266;2023-05-07T01:18:50;101086.84;;;16.21;56.83
23281;BME280;11809;56.390;-3.266;2023-05-07T01:21:18;101080.78;;;16.19;56.99
23281;BME280;11809;56.390;-3.266;2023-05-07T01:23:45;101083.41;;;16.19;56.90
23281;BME280;11809;56.390;-3.266;2023-05-07T01:26:12;101084.28;;;16.20;56.84
23281;BME280;11809;56.390;-3.266;2023-05-07T01:28:39;101086.06;;;16.19;57.04
23281;BME280;11809;56.390;-3.266;2023-05-07T01:31:08;101095.81;;;16.19;56.96
23281;BME280;11809;56.390;-3.266;2023-05-07T01:33:37;101094.97;;;16.18;56.92
23281;BME280;11809;56.390;-3.266;2023-05-07T01:36:05;101097.59;;;16.18;57.24
23281;BME280;11809;56.390;-3.266;2023-05-07T01:38:34;101108.22;;;16.18;57.18
23281;BME280;11809;56.390;-3.266;2023-05-07T01:41:02;101107.38;;;16.18;57.14
23281;BME280;11809;56.390;-3.266;2023-05-07T01:43:30;101106.53;;;16.17;57.18
23281;BME280;11809;56.390;-3.266;2023-05-07T01:45:58;101112.69;;;16.18;57.31
23281;BME280;11809;56.390;-3.266;2023-05-07T01:48:25;101105.66;;;16.17;56.96
23281;BME280;11809;56.390;-3.266;2023-05-07T01:50:53;101102.16;;;16.16;57.13
23281;BME280;11809;56.390;-3.266;2023-05-07T01:53:20;101094.28;;;16.15;57.05
23281;BME280;11809;56.390;-3.266;2023-05-07T01:55:47;101101.28;;;16.16;57.03
23281;BME280;11809;56.390;-3.266;2023-05-07T01:58:14;101097.78;;;16.15;56.97
23281;BME280;11809;56.390;-3.266;2023-05-07T02:00:41;101098.63;;;16.16;57.06
23281;BME280;11809;56.390;-3.266;2023-05-07T02:03:08;101089.06;;;16.13;57.36
23281;BME280;11809;56.390;-3.266;2023-05-07T02:05:36;101096.84;;;16.16;57.21
23281;BME280;11809;56.390;-3.266;2023-05-07T02:08:03;101094.19;;;16.16;57.31
23281;BME280;11809;56.390;-3.266;2023-05-07T02:10:30;101095.13;;;16.15;57.05
23281;BME280;11809;56.390;-3.266;2023-05-07T02:12:57;101090.78;;;16.14;57.33
23281;BME280;11809;56.390;-3.266;2023-05-07T02:15:24;101085.47;;;16.14;57.29
23281;BME280;11809;56.390;-3.266;2023-05-07T02:18:05;101090.63;;;16.17;57.21
23281;BME280;11809;56.390;-3.266;2023-05-07T02:20:35;101087.16;;;16.15;56.88
23281;BME280;11809;56.390;-3.266;2023-05-07T02:23:02;101082.72;;;16.16;57.31
23281;BME280;11809;56.390;-3.266;2023-05-07T02:25:29;101087.97;;;16.17;57.19
23281;BME280;11809;56.390;-3.266;2023-05-07T02:27:56;101091.53;;;16.16;57.31
23281;BME280;11809;56.390;-3.266;2023-05-07T02:30:24;101090.63;;;16.17;57.21
23281;BME280;11809;56.390;-3.266;2023-05-07T02:32:51;101094.19;;;16.16;56.99
23281;BME280;11809;56.390;-3.266;2023-05-07T02:35:18;101096.84;;;16.16;57.17
23281;BME280;11809;56.390;-3.266;2023-05-07T02:37:45;101101.22;;;16.17;57.14
23281;BME280;11809;56.390;-3.266;2023-05-07T02:40:12;101099.50;;;16.16;57.20
23281;BME280;11809;56.390;-3.266;2023-05-07T02:42:40;101100.34;;;16.17;57.27
23281;BME280;11809;56.390;-3.266;2023-05-07T02:45:07;101103.88;;;16.17;57.42
23281;BME280;11809;56.390;-3.266;2023-05-07T02:47:34;101107.38;;;16.18;57.17
23281;BME280;11809;56.390;-3.266;2023-05-07T02:50:02;101099.50;;;16.16;57.38
23281;BME280;11809;56.390;-3.266;2023-05-07T02:52:29;101104.72;;;16.18;57.38
23281;BME280;11809;56.390;-3.266;2023-05-07T02:54:56;101111.72;;;16.19;57.57
23281;BME280;11809;56.390;-3.266;2023-05-07T02:57:23;101113.53;;;16.18;57.60
23281;BME280;11809;56.390;-3.266;2023-05-07T02:59:50;101101.22;;;16.17;57.49
23281;BME280;11809;56.390;-3.266;2023-05-07T03:02:18;101104.63;;;16.19;57.36
23281;BME280;11809;56.390;-3.266;2023-05-07T03:04:45;101104.63;;;16.19;57.48
23281;BME280;11809;56.390;-3.266;2023-05-07T03:07:12;101106.34;;;16.20;57.43
23281;BME280;11809;56.390;-3.266;2023-05-07T03:09:39;101108.03;;;16.21;57.47
23281;BME280;11809;56.390;-3.266;2023-05-07T03:12:06;101109.78;;;16.22;57.49
23281;BME280;11809;56.390;-3.266;2023-05-07T03:14:33;101113.34;;;16.21;57.75
23281;BME280;11809;56.390;-3.266;2023-05-07T03:17:00;101109.78;;;16.22;57.67
23281;BME280;11809;56.390;-3.266;2023-05-07T03:19:27;101113.34;;;16.21;57.56
23281;BME280;11809;56.390;-3.266;2023-05-07T03:21:54;101115.84;;;16.24;57.59
23281;BME280;11809;56.390;-3.266;2023-05-07T03:24:22;101119.34;;;16.25;57.87
23281;BME280;11809;56.390;-3.266;2023-05-07T03:26:49;101116.69;;;16.25;57.70
23281;BME280;11809;56.390;-3.266;2023-05-07T03:29:16;101127.22;;;16.26;57.57
23281;BME280;11809;56.390;-3.266;2023-05-07T03:31:43;101124.56;;;16.26;57.73
23281;BME280;11809;56.390;-3.266;2023-05-07T03:34:10;101128.94;;;16.27;57.84
23281;BME280;11809;56.390;-3.266;2023-05-07T03:36:37;101130.66;;;16.28;57.60
23281;BME280;11809;56.390;-3.266;2023-05-07T03:39:04;101125.34;;;16.28;57.59
23281;BME280;11809;56.390;-3.266;2023-05-07T03:41:32;101127.91;;;16.30;57.72
23281;BME280;11809;56.390;-3.266;2023-05-07T03:43:59;101135.75;;;16.31;57.53
23281;BME280;11809;56.390;-3.266;2023-05-07T03:46:26;101126.97;;;16.31;57.71
23281;BME280;11809;56.390;-3.266;2023-05-07T03:48:55;101120.72;;;16.32;57.74
23281;BME280;11809;56.390;-3.266;2023-05-07T03:51:22;101112.75;;;16.32;57.79
23281;BME280;11809;56.390;-3.266;2023-05-07T03:53:49;101117.13;;;16.33;57.47
23281;BME280;11809;56.390;-3.266;2023-05-07T03:56:16;101104.78;;;16.32;57.74
23281;BME280;11809;56.390;-3.266;2023-05-07T03:58:45;101111.81;;;16.33;57.76
23281;BME280;11809;56.390;-3.266;2023-05-07T04:01:12;101109.16;;;16.33;57.66
23281;BME280;11809;56.390;-3.266;2023-05-07T04:03:39;101111.72;;;16.34;57.50
23281;BME280;11809;56.390;-3.266;2023-05-07T04:06:06;101107.38;;;16.33;57.70
23281;BME280;11809;56.390;-3.266;2023-05-07T04:08:33;101109.06;;;16.34;57.56
23281;BME280;11809;56.390;-3.266;2023-05-07T04:11:00;101101.22;;;16.33;57.54
23281;BME280;11809;56.390;-3.266;2023-05-07T04:13:27;101107.22;;;16.36;57.65
23281;BME280;11809;56.390;-3.266;2023-05-07T04:15:55;101112.50;;;16.36;57.45
23281;BME280;11809;56.390;-3.266;2023-05-07T04:18:22;101117.81;;;16.36;57.51
23281;BME280;11809;56.390;-3.266;2023-05-07T04:20:49;101114.97;;;16.39;57.54
23281;BME280;11809;56.390;-3.266;2023-05-07T04:23:16;101106.06;;;16.41;57.65
23281;BME280;11809;56.390;-3.266;2023-05-07T04:25:43;101105.16;;;16.42;57.45
23281;BME280;11809;56.390;-3.266;2023-05-07T04:28:10;101104.91;;;16.30;57.23
23281;BME280;11809;56.390;-3.266;2023-05-07T04:30:38;101100.53;;;16.14;57.91
23281;BME280;11809;56.390;-3.266;2023-05-07T04:33:05;101099.59;;;15.99;57.55
23281;BME280;11809;56.390;-3.266;2023-05-07T04:35:33;101107.56;;;15.99;57.82
23281;BME280;11809;56.390;-3.266;2023-05-07T04:38:00;101102.31;;;15.98;58.21
23281;BME280;11809;56.390;-3.266;2023-05-07T04:40:28;101093.34;;;16.00;58.71
23281;BME280;11809;56.390;-3.266;2023-05-07T04:42:55;101094.38;;;15.98;58.74
23281;BME280;11809;56.390;-3.266;2023-05-07T04:45:22;101100.84;;;15.92;59.07
23281;BME280;11809;56.390;-3.266;2023-05-07T04:47:49;101103.66;;;15.89;58.82
23281;BME280;11809;56.390;-3.266;2023-05-07T04:50:16;101108.13;;;15.89;59.53
23281;BME280;11809;56.390;-3.266;2023-05-07T04:52:46;101106.84;;;15.96;59.57
23281;BME280;11809;56.390;-3.266;2023-05-07T04:55:13;101102.75;;;16.06;59.03
23281;BME280;11809;56.390;-3.266;2023-05-07T04:57:40;101113.69;;;16.15;58.85
23281;BME280;11809;56.390;-3.266;2023-05-07T05:00:08;101113.34;;;16.21;58.85
23281;BME280;11809;56.390;-3.266;2023-05-07T05:02:36;101114.91;;;16.25;58.64
23281;BME280;11809;56.390;-3.266;2023-05-07T05:05:03;101115.56;;;16.29;58.67
23281;BME280;11809;56.390;-3.266;2023-05-07T05:07:30;101111.06;;;16.31;58.55
23281;BME280;11809;56.390;-3.266;2023-05-07T05:09:57;101115.50;;;16.30;58.59
23281;BME280;11809;56.390;-3.266;2023-05-07T05:12:24;101114.47;;;16.33;58.56
23281;BME280;11809;56.390;-3.266;2023-05-07T05:14:51;101116.09;;;16.35;58.56
23281;BME280;11809;56.390;-3.266;2023-05-07T05:17:18;101117.81;;;16.36;58.35
23281;BME280;11809;56.390;-3.266;2023-05-07T05:19:45;101121.22;;;16.38;58.37
23281;BME280;11809;56.390;-3.266;2023-05-07T05:22:12;101124.75;;;16.39;58.30
23281;BME280;11809;56.390;-3.266;2023-05-07T05:24:39;101124.66;;;16.41;58.16
23281;BME280;11809;56.390;-3.266;2023-05-07T05:27:06;101128.06;;;16.43;58.12
23281;BME280;11809;56.390;-3.266;2023-05-07T05:29:33;101125.50;;;16.41;58.06
23281;BME280;11809;56.390;-3.266;2023-05-07T05:32:00;101129.78;;;16.44;58.14
23281;BME280;11809;56.390;-3.266;2023-05-07T05:34:27;101129.78;;;16.44;57.92
23281;BME280;11809;56.390;-3.266;2023-05-07T05:36:54;101139.38;;;16.46;58.10
23281;BME280;11809;56.390;-3.266;2023-05-07T05:39:22;101138.50;;;16.46;58.02
23281;BME280;11809;56.390;-3.266;2023-05-07T05:41:49;101151.69;;;16.47;58.13
23281;BME280;11809;56.390;-3.266;2023-05-07T05:44:16;101146.47;;;16.46;57.95
23281;BME280;11809;56.390;-3.266;2023-05-07T05:46:43;101144.56;;;16.48;57.98
23281;BME280;11809;56.390;-3.266;2023-05-07T05:49:11;101148.00;;;16.50;57.94
23281;BME280;11809;56.390;-3.266;2023-05-07T05:51:38;101148.00;;;16.50;57.97
23281;BME280;11809;56.390;-3.266;2023-05-07T05:54:05;101141.91;;;16.48;57.74
23281;BME280;11809;56.390;-3.266;2023-05-07T05:56:32;101153.31;;;16.50;57.86
23281;BME280;11809;56.390;-3.266;2023-05-07T05:58:59;101147.84;;;16.53;57.94
23281;BME280;11809;56.390;-3.266;2023-05-07T06:01:27;101148.72;;;16.53;57.82
23281;BME280;11809;56.390;-3.266;2023-05-07T06:03:54;101148.78;;;16.52;58.24
23281;BME280;11809;56.390;-3.266;2023-05-07T06:06:21;101160.94;;;16.56;57.71
23281;BME280;11809;56.390;-3.266;2023-05-07T06:08:48;101165.31;;;16.57;57.76
23281;BME280;11809;56.390;-3.266;2023-05-07T06:11:15;101160.94;;;16.56;57.80
23281;BME280;11809;56.390;-3.266;2023-05-07T06:13:42;101164.38;;;16.58;57.62
23281;BME280;11809;56.390;-3.266;2023-05-07T06:16:09;101164.38;;;16.58;57.74
23281;BME280;11809;56.390;-3.266;2023-05-07T06:18:36;101170.53;;;16.58;57.84
23281;BME280;11809;56.390;-3.266;2023-05-07T06:21:03;101170.53;;;16.58;57.72
23281;BME280;11809;56.390;-3.266;2023-05-07T06:23:31;101168.72;;;16.59;57.58
23281;BME280;11809;56.390;-3.266;2023-05-07T06:25:58;101166.84;;;16.61;57.67
23281;BME280;11809;56.390;-3.266;2023-05-07T06:28:25;101164.19;;;16.61;57.67
23281;BME280;11809;56.390;-3.266;2023-05-07T06:30:52;101158.06;;;16.60;57.76
23281;BME280;11809;56.390;-3.266;2023-05-07T06:33:19;101174.81;;;16.61;57.68
23281;BME280;11809;56.390;-3.266;2023-05-07T06:35:46;101168.56;;;16.62;57.60
23281;BME280;11809;56.390;-3.266;2023-05-07T06:38:13;101166.78;;;16.62;57.72
23281;BME280;11809;56.390;-3.266;2023-05-07T06:40:40;101168.47;;;16.63;57.55
23281;BME280;11809;56.390;-3.266;2023-05-07T06:43:07;101167.63;;;16.63;57.54
23281;BME280;11809;56.390;-3.266;2023-05-07T06:45:35;101175.59;;;16.63;57.54
23281;BME280;11809;56.390;-3.266;2023-05-07T06:48:02;101167.63;;;16.63;57.53
23281;BME280;11809;56.390;-3.266;2023-05-07T06:50:29;101169.31;;;16.64;57.65
23281;BME280;11809;56.390;-3.266;2023-05-07T06:52:56;101171.06;;;16.65;57.58
23281;BME280;11809;56.390;-3.266;2023-05-07T06:55:23;101171.06;;;16.65;57.50
23281;BME280;11809;56.390;-3.266;2023-05-07T06:57:50;101176.34;;;16.65;57.56
23281;BME280;11809;56.390;-3.266;2023-05-07T07:00:18;101175.44;;;16.66;57.64
23281;BME280;11809;56.390;-3.266;2023-05-07T07:02:45;101171.06;;;16.65;57.65
23281;BME280;11809;56.390;-3.266;2023-05-07T07:05:12;101180.81;;;16.64;57.55
23281;BME280;11809;56.390;-3.266;2023-05-07T07:07:39;101182.53;;;16.65;57.59
23281;BME280;11809;56.390;-3.266;2023-05-07T07:10:07;101181.56;;;16.66;57.60
23281;BME280;11809;56.390;-3.266;2023-05-07T07:12:34;101180.81;;;16.64;57.62
23281;BME280;11809;56.390;-3.266;2023-05-07T07:15:01;101183.38;;;16.66;57.78
23281;BME280;11809;56.390;-3.266;2023-05-07T07:17:29;101185.94;;;16.67;57.48
23281;BME280;11809;56.390;-3.266;2023-05-07T07:19:56;101188.69;;;16.66;57.56
23281;BME280;11809;56.390;-3.266;2023-05-07T07:22:23;101189.47;;;16.68;57.58
23281;BME280;11809;56.390;-3.266;2023-05-07T07:24:50;101187.66;;;16.68;57.40
23281;BME280;11809;56.390;-3.266;2023-05-07T07:27:17;101189.47;;;16.68;57.67
23281;BME280;11809;56.390;-3.266;2023-05-07T07:29:45;101188.50;;;16.69;57.63
23281;BME280;11809;56.390;-3.266;2023-05-07T07:32:12;101190.38;;;16.67;57.69
23281;BME280;11809;56.390;-3.266;2023-05-07T07:34:39;101193.81;;;16.69;57.55
23281;BME280;11809;56.390;-3.266;2023-05-07T07:37:06;101190.22;;;16.70;57.47
23281;BME280;11809;56.390;-3.266;2023-05-07T07:39:33;101198.28;;;16.68;57.52
23281;BME280;11809;56.390;-3.266;2023-05-07T07:42:00;101199.97;;;16.69;57.62
23281;BME280;11809;56.390;-3.266;2023-05-07T07:44:28;101199.91;;;16.71;57.81
23281;BME280;11809;56.390;-3.266;2023-05-07T07:46:55;101203.56;;;16.53;57.28
23281;BME280;11809;56.390;-3.266;2023-05-07T07:49:22;101202.50;;;16.39;57.48
23281;BME280;11809;56.390;-3.266;2023-05-07T07:51:49;101196.28;;;16.41;57.68
23281;BME280;11809;56.390;-3.266;2023-05-07T07:54:16;101197.19;;;16.39;58.07
23281;BME280;11809;56.390;-3.266;2023-05-07T07:56:43;101198.38;;;16.34;58.61
23281;BME280;11809;56.390;-3.266;2023-05-07T07:59:10;101200.97;;;16.35;58.81
23281;BME280;11809;56.390;-3.266;2023-05-07T08:01:37;101193.63;;;16.41;59.03
23281;BME280;11809;56.390;-3.266;2023-05-07T08:04:04;101209.38;;;16.44;59.36
23281;BME280;11809;56.390;-3.266;2023-05-07T08:06:32;101215.59;;;16.43;59.48
23281;BME280;11809;56.390;-3.266;2023-05-07T08:08:59;101216.03;;;16.51;58.85
23281;BME280;11809;56.390;-3.266;2023-05-07T08:11:27;101225.31;;;16.59;58.83
23281;BME280;11809;56.390;-3.266;2023-05-07T08:13:54;101225.66;;;16.69;60.00
23281;BME280;11809;56.390;-3.266;2023-05-07T08:16:22;101224.44;;;16.74;60.34
23281;BME280;11809;56.390;-3.266;2023-05-07T08:18:49;101232.19;;;16.79;59.96
23281;BME280;11809;56.390;-3.266;2023-05-07T08:21:17;101224.97;;;16.81;59.74
23281;BME280;11809;56.390;-3.266;2023-05-07T08:23:44;101233.69;;;16.83;59.96
23281;BME280;11809;56.390;-3.266;2023-05-07T08:26:11;101225.75;;;16.83;60.03
23281;BME280;11809;56.390;-3.266;2023-05-07T08:28:38;101223.09;;;16.83;60.98
23281;BME280;11809;56.390;-3.266;2023-05-07T08:31:06;101221.88;;;16.88;60.06
23281;BME280;11809;56.390;-3.266;2023-05-07T08:33:33;101223.44;;;16.92;59.43
23281;BME280;11809;56.390;-3.266;2023-05-07T08:36:00;101225.06;;;16.95;59.63
23281;BME280;11809;56.390;-3.266;2023-05-07T08:38:28;101229.50;;;16.94;59.74
23281;BME280;11809;56.390;-3.266;2023-05-07T08:40:56;101228.38;;;16.98;59.79
23281;BME280;11809;56.390;-3.266;2023-05-07T08:43:26;101229.22;;;16.99;59.52
23281;BME280;11809;56.390;-3.266;2023-05-07T08:45:55;101226.47;;;17.01;59.30
23281;BME280;11809;56.390;-3.266;2023-05-07T08:48:25;101229.34;;;16.98;59.55
23281;BME280;11809;56.390;-3.266;2023-05-07T08:50:53;101234.13;;;16.91;59.88
23281;BME280;11809;56.390;-3.266;2023-05-07T08:53:20;101237.81;;;16.88;60.34
23281;BME280;11809;56.390;-3.266;2023-05-07T08:55:48;101236.19;;;16.86;60.16
23281;BME280;11809;56.390;-3.266;2023-05-07T08:58:15;101233.19;;;16.92;59.91
23281;BME280;11809;56.390;-3.266;2023-05-07T09:00:43;101241.34;;;16.73;59.35
23281;BME280;11809;56.390;-3.266;2023-05-07T09:03:10;101235.94;;;16.75;59.35
23281;BME280;11809;56.390;-3.266;2023-05-07T09:05:39;101235.31;;;16.85;59.82
23281;BME280;11809;56.390;-3.266;2023-05-07T09:08:07;101243.97;;;16.89;60.36
23281;BME280;11809;56.390;-3.266;2023-05-07T09:10:34;101253.91;;;16.85;59.86
23281;BME280;11809;56.390;-3.266;2023-05-07T09:13:02;101246.38;;;16.78;59.66
23281;BME280;11809;56.390;-3.266;2023-05-07T09:15:29;101251.81;;;16.44;59.64
23281;BME280;11809;56.390;-3.266;2023-05-07T09:18:00;101254.66;;;16.23;59.67
23281;BME280;11809;56.390;-3.266;2023-05-07T09:20:31;101258.91;;;16.10;59.52
23281;BME280;11809;56.390;-3.266;2023-05-07T09:22:59;101254.50;;;16.26;59.89
23281;BME280;11809;56.390;-3.266;2023-05-07T09:25:33;101251.06;;;16.42;60.08
23281;BME280;11809;56.390;-3.266;2023-05-07T09:28:01;101244.47;;;16.49;59.96
23281;BME280;11809;56.390;-3.266;2023-05-07T09:30:32;101247.56;;;16.57;60.07
23281;BME280;11809;56.390;-3.266;2023-05-07T09:33:03;101251.97;;;16.58;60.32
23281;BME280;11809;56.390;-3.266;2023-05-07T09:35:30;101254.50;;;16.59;60.14
23281;BME280;11809;56.390;-3.266;2023-05-07T09:38:00;101246.22;;;16.65;59.49
23281;BME280;11809;56.390;-3.266;2023-05-07T09:40:30;101243.41;;;16.68;59.86
23281;BME280;11809;56.390;-3.266;2023-05-07T09:43:09;101246.28;;;16.64;59.43
23281;BME280;11809;56.390;-3.266;2023-05-07T09:45:37;101248.41;;;16.42;59.90
23281;BME280;11809;56.390;-3.266;2023-05-07T09:48:05;101246.78;;;16.39;59.50
23281;BME280;11809;56.390;-3.266;2023-05-07T09:50:44;101241.50;;;16.22;59.88
23281;BME280;11809;56.390;-3.266;2023-05-07T09:53:14;101239.78;;;16.21;60.51
23281;BME280;11809;56.390;-3.266;2023-05-07T09:55:42;101240.81;;;16.18;60.46
23281;BME280;11809;56.390;-3.266;2023-05-07T09:58:12;101235.34;;;16.21;60.46
23281;BME280;11809;56.390;-3.266;2023-05-07T10:00:39;101241.16;;;16.12;60.78
23281;BME280;11809;56.390;-3.266;2023-05-07T10:03:08;101241.16;;;16.12;61.01
23281;BME280;11809;56.390;-3.266;2023-05-07T10:05:37;101239.34;;;16.13;61.07
23281;BME280;11809;56.390;-3.266;2023-05-07T10:08:04;101247.06;;;16.17;61.27
23281;BME280;11809;56.390;-3.266;2023-05-07T10:10:33;101248.41;;;16.09;60.93
23281;BME280;11809;56.390;-3.266;2023-05-07T10:13:01;101250.03;;;16.11;60.95
23281;BME280;11809;56.390;-3.266;2023-05-07T10:15:29;101250.91;;;16.12;61.36
23281;BME280;11809;56.390;-3.266;2023-05-07T10:17:57;101243.91;;;16.26;61.28
23281;BME280;11809;56.390;-3.266;2023-05-07T10:20:25;101242.56;;;16.35;60.93
23281;BME280;11809;56.390;-3.266;2023-05-07T10:22:55;101249.22;;;16.42;61.40
23281;BME280;11809;56.390;-3.266;2023-05-07T10:25:26;101242.94;;;16.45;61.07
23281;BME280;11809;56.390;-3.266;2023-05-07T10:28:00;101242.66;;;16.49;60.56
23281;BME280;11809;56.390;-3.266;2023-05-07T10:33:05;101247.41;;;16.60;60.47
23281;BME280;11809;56.390;-3.266;2023-05-07T10:35:44;101252.63;;;16.61;60.39
23281;BME280;11809;56.390;-3.266;2023-05-07T10:38:11;101257.88;;;16.63;60.53
23281;BME280;11809;56.390;-3.266;2023-05-07T10:40:39;101258.63;;;16.65;60.49
23281;BME280;11809;56.390;-3.266;2023-05-07T10:43:06;101263.06;;;16.64;60.68
23281;BME280;11809;56.390;-3.266;2023-05-07T10:45:36;101270.88;;;16.67;60.52
23281;BME280;11809;56.390;-3.266;2023-05-07T10:48:08;101261.28;;;16.65;60.81
23281;BME280;11809;56.390;-3.266;2023-05-07T10:51:21;101271.72;;;16.68;60.87
23281;BME280;11809;56.390;-3.266;2023-05-07T10:56:42;101263.66;;;16.69;61.20
23281;BME280;11809;56.390;-3.266;2023-05-07T11:02:03;101267.94;;;16.56;61.00
23281;BME280;11809;56.390;-3.266;2023-05-07T11:04:31;101267.41;;;16.50;61.63
23281;BME280;11809;56.390;-3.266;2023-05-07T11:09:55;101269.47;;;16.45;62.09
23281;BME280;11809;56.390;-3.266;2023-05-07T11:15:06;101268.00;;;16.39;61.88
23281;BME280;11809;56.390;-3.266;2023-05-07T11:17:52;101265.41;;;16.37;61.86
23281;BME280;11809;56.390;-3.266;2023-05-07T11:20:19;101263.63;;;16.38;62.05
23281;BME280;11809;56.390;-3.266;2023-05-07T11:22:47;101274.31;;;16.36;61.93
23281;BME280;11809;56.390;-3.266;2023-05-07T11:25:18;101278.66;;;16.37;61.90
23281;BME280;11809;56.390;-3.266;2023-05-07T11:27:46;101282.09;;;16.39;61.61
23281;BME280;11809;56.390;-3.266;2023-05-07T11:30:17;101288.34;;;16.38;61.78
23281;BME280;11809;56.390;-3.266;2023-05-07T11:32:47;101286.63;;;16.37;61.70
23281;BME280;11809;56.390;-3.266;2023-05-07T11:35:15;101275.25;;;16.35;61.81
23281;BME280;11809;56.390;-3.266;2023-05-07T11:37:44;101276.13;;;16.36;61.74
23281;BME280;11809;56.390;-3.266;2023-05-07T11:40:12;101268.22;;;16.34;61.78
23281;BME280;11809;56.390;-3.266;2023-05-07T11:42:40;101275.25;;;16.35;61.73
23281;BME280;11809;56.390;-3.266;2023-05-07T11:45:09;101284.22;;;16.33;61.75
23281;BME280;11809;56.390;-3.266;2023-05-07T11:47:37;101275.41;;;16.32;61.69
23281;BME280;11809;56.390;-3.266;2023-05-07T11:50:06;101280.72;;;16.32;61.57
23281;BME280;11809;56.390;-3.266;2023-05-07T11:52:35;101280.72;;;16.32;61.53
23281;BME280;11809;56.390;-3.266;2023-05-07T11:55:03;101277.28;;;16.30;61.70
23281;BME280;11809;56.390;-3.266;2023-05-07T11:57:33;101268.56;;;16.28;61.63
23281;BME280;11809;56.390;-3.266;2023-05-07T12:00:01;101269.25;;;16.32;61.51
23281;BME280;11809;56.390;-3.266;2023-05-07T12:02:31;101265.81;;;16.30;61.61
23281;BME280;11809;56.390;-3.266;2023-05-07T12:05:00;101265.81;;;16.30;61.78
23281;BME280;11809;56.390;-3.266;2023-05-07T12:07:27;101269.19;;;16.33;61.46
23281;BME280;11809;56.390;-3.266;2023-05-07T12:09:54;101265.53;;;16.19;61.70
23281;BME280;11809;56.390;-3.266;2023-05-07T12:12:21;101268.28;;;16.17;61.89
23281;BME280;11809;56.390;-3.266;2023-05-07T12:14:48;101267.31;;;16.18;61.96
23281;BME280;11809;56.390;-3.266;2023-05-07T12:17:16;101266.25;;;16.22;62.48
23281;BME280;11809;56.390;-3.266;2023-05-07T12:19:44;101261.53;;;16.27;62.70
23281;BME280;11809;56.390;-3.266;2023-05-07T12:22:11;101267.78;;;16.26;62.80
23281;BME280;11809;56.390;-3.266;2023-05-07T12:24:50;101259.81;;;16.26;63.00
23281;BME280;11809;56.390;-3.266;2023-05-07T12:27:23;101262.06;;;16.34;62.44
23281;BME280;11809;56.390;-3.266;2023-05-07T12:29:50;101265.41;;;16.37;62.85
23281;BME280;11809;56.390;-3.266;2023-05-07T12:32:21;101277.47;;;16.43;62.13
23281;BME280;11809;56.390;-3.266;2023-05-07T12:34:53;101278.25;;;16.45;61.76
23281;BME280;11809;56.390;-3.266;2023-05-07T12:37:24;101290.31;;;16.51;62.07
23281;BME280;11809;56.390;-3.266;2023-05-07T12:40:09;101288.47;;;16.53;62.22
23281;BME280;11809;56.390;-3.266;2023-05-07T12:42:39;101287.47;;;16.55;62.09
23281;BME280;11809;56.390;-3.266;2023-05-07T12:45:11;101278.50;;;16.58;62.20
23281;BME280;11809;56.390;-3.266;2023-05-07T12:47:43;101280.03;;;16.62;62.15
23281;BME280;11809;56.390;-3.266;2023-05-07T12:50:15;101288.59;;;16.67;62.03
23281;BME280;11809;56.390;-3.266;2023-05-07T12:52:44;101282.34;;;16.68;61.78
23281;BME280;11809;56.390;-3.266;2023-05-07T12:55:13;101284.03;;;16.69;61.97
23281;BME280;11809;56.390;-3.266;2023-05-07T12:57:45;101290.91;;;16.73;61.85